createdAt,value
2022-12-25T00:00:04.726Z,99083.97
2022-12-25T00:02:34.449Z,99087.22
2022-12-25T00:05:02.821Z,99086.22
2022-12-25T00:07:31.136Z,99092.06
2022-12-25T00:09:59.372Z,99083.59
2022-12-25T00:12:27.562Z,99085.84
2022-12-25T00:14:55.752Z,99088.25
2022-12-25T00:17:23.928Z,99078.56
2022-12-25T00:19:53.768Z,99073.72
2022-12-25T00:22:21.916Z,99067.84
2022-12-25T00:24:50.430Z,99070.69
2022-12-25T00:27:18.881Z,99069.06
2022-12-25T00:29:46.984Z,99066.22
2022-12-25T00:32:15.163Z,99065.78
2022-12-25T00:34:43.348Z,99057.31
2022-12-25T00:37:13.972Z,99055.66
2022-12-25T00:39:42.156Z,99057.69
2022-12-25T00:42:20.383Z,99058.72
2022-12-25T00:44:49.456Z,99056.47
2022-12-25T00:47:19.781Z,99060.69
2022-12-25T00:49:48.178Z,99072.22
2022-12-25T00:52:17.708Z,99067.97
2022-12-25T00:54:45.979Z,99063.09
2022-12-25T00:57:14.287Z,99055.22
2022-12-25T00:59:42.792Z,99057.69
2022-12-25T01:02:26.390Z,99051.41
2022-12-25T01:04:56.732Z,99055.44
2022-12-25T01:07:27.676Z,99066.97
2022-12-25T01:10:14.603Z,99065.34
2022-12-25T01:12:44.599Z,99072.22
2022-12-25T01:15:13.827Z,99075.66
2022-12-25T01:17:42.856Z,99075.06
2022-12-25T01:20:12.573Z,99074.84
2022-12-25T01:22:42.727Z,99062.56
2022-12-25T01:25:11.957Z,99065.41
2022-12-25T01:27:40.571Z,99073.69
2022-12-25T01:30:09.922Z,99075.94
2022-12-25T01:32:38.531Z,99071.09
2022-12-25T01:35:07.637Z,99068.06
2022-12-25T01:37:35.818Z,99052.31
2022-12-25T01:40:06.426Z,99056.97
2022-12-25T01:42:34.676Z,99047.06
2022-12-25T01:45:31.959Z,99039.81
2022-12-25T01:48:00.459Z,99041.00
2022-12-25T01:50:29.721Z,99045.44
2022-12-25T01:52:58.851Z,99045.22
2022-12-25T01:55:29.292Z,99045.22
2022-12-25T01:57:58.143Z,99051.28
2022-12-25T02:00:26.230Z,99056.75
2022-12-25T02:02:54.760Z,99048.84
2022-12-25T02:05:28.314Z,99046.22
2022-12-25T02:07:57.976Z,99043.59
2022-12-25T02:10:26.211Z,99047.25
2022-12-25T02:12:55.959Z,99052.69
2022-12-25T02:15:31.567Z,99047.03
2022-12-25T02:18:08.727Z,99037.91
2022-12-25T02:20:48.128Z,99038.31
2022-12-25T02:23:45.347Z,99038.09
2022-12-25T02:26:26.605Z,99049.59
2022-12-25T02:29:02.859Z,99049.59
2022-12-25T02:31:39.365Z,99060.09
2022-12-25T02:34:15.177Z,99048.78
2022-12-25T02:36:48.938Z,99057.47
2022-12-25T02:39:41.907Z,99060.09
2022-12-25T02:42:14.850Z,99061.91
2022-12-25T02:45:11.669Z,99069.00
2022-12-25T02:47:57.788Z,99064.72
2022-12-25T02:50:44.778Z,99058.06
2022-12-25T02:53:31.279Z,99059.25
2022-12-25T02:56:18.143Z,99055.22
2022-12-25T02:59:05.139Z,99063.25
2022-12-25T03:01:56.418Z,99051.56
2022-12-25T03:04:45.461Z,99054.78
2022-12-25T03:07:17.869Z,99062.06
2022-12-25T03:10:10.698Z,99070.97
2022-12-25T03:12:48.046Z,99059.28
2022-12-25T03:15:35.090Z,99059.09
2022-12-25T03:18:07.551Z,99057.69
2022-12-25T03:20:53.505Z,99042.72
2022-12-25T03:23:43.204Z,99046.75
2022-12-25T03:26:28.739Z,99048.38
2022-12-25T03:28:56.961Z,99049.59
2022-12-25T03:31:32.459Z,99060.47
2022-12-25T03:34:28.554Z,99058.88
2022-12-25T03:37:22.391Z,99048.38
2022-12-25T03:40:19.365Z,99045.16
2022-12-25T03:43:11.777Z,99051.81
2022-12-25T03:46:04.124Z,99053.63
2022-12-25T03:48:53.121Z,99043.72
2022-12-25T03:51:48.323Z,99040.69
2022-12-25T03:54:37.946Z,99044.72
2022-12-25T03:57:24.254Z,99043.13
2022-12-25T04:00:09.474Z,99052.00
2022-12-25T04:02:55.916Z,99052.00
2022-12-25T04:05:41.723Z,99046.75
2022-12-25T04:08:29.093Z,99050.38
2022-12-25T04:11:14.484Z,99052.38
2022-12-25T04:13:59.657Z,99045.94
2022-12-25T04:16:41.558Z,99041.28
2022-12-25T04:19:27.528Z,99048.16
2022-12-25T04:22:13.253Z,99050.78
2022-12-25T04:25:00.519Z,99049.97
2022-12-25T04:27:45.655Z,99044.72
2022-12-25T04:30:33.767Z,99043.13
2022-12-25T04:33:19.418Z,99048.38
2022-12-25T04:36:06.068Z,99040.28
2022-12-25T04:38:34.496Z,99044.34
2022-12-25T04:41:04.971Z,99039.09
2022-12-25T04:43:33.366Z,99035.25
2022-12-25T04:46:03.087Z,99035.47
2022-12-25T04:48:34.521Z,99045.34
2022-12-25T04:51:11.107Z,99033.41
2022-12-25T04:53:39.301Z,99033.03
2022-12-25T04:56:09.081Z,99033.03
2022-12-25T04:58:37.321Z,99034.06
2022-12-25T05:01:06.479Z,99027.97
2022-12-25T05:03:35.531Z,99025.97
2022-12-25T05:06:05.185Z,99033.44
2022-12-25T05:08:36.038Z,99024.56
2022-12-25T05:11:10.065Z,99032.66
2022-12-25T05:13:39.048Z,99029.63
2022-12-25T05:16:08.916Z,99031.28
2022-12-25T05:18:37.233Z,99022.19
2022-12-25T05:21:06.116Z,99021.78
2022-12-25T05:23:34.292Z,99028.88
2022-12-25T05:26:05.475Z,99027.03
2022-12-25T05:28:35.479Z,99023.03
2022-12-25T05:31:04.066Z,99026.03
2022-12-25T05:33:32.367Z,99025.22
2022-12-25T05:36:04.246Z,99031.28
2022-12-25T05:38:32.600Z,99033.91
2022-12-25T05:41:01.217Z,99019.59
2022-12-25T05:43:30.528Z,99024.03
2022-12-25T05:46:00.104Z,99020.59
2022-12-25T05:48:28.302Z,99030.69
2022-12-25T05:50:56.424Z,99022.81
2022-12-25T05:53:24.676Z,99010.91
2022-12-25T05:55:53.662Z,99019.00
2022-12-25T05:58:21.809Z,99024.25
2022-12-25T06:00:50.123Z,99025.06
2022-12-25T06:03:19.755Z,99027.47
2022-12-25T06:05:48.068Z,99026.03
2022-12-25T06:08:16.353Z,99022.59
2022-12-25T06:10:44.539Z,99014.13
2022-12-25T06:13:12.639Z,99013.31
2022-12-25T06:15:41.220Z,99011.72
2022-12-25T06:18:09.761Z,99018.56
2022-12-25T06:20:42.071Z,99022.22
2022-12-25T06:23:10.374Z,99031.06
2022-12-25T06:25:40.395Z,99019.97
2022-12-25T06:28:08.840Z,99034.50
2022-12-25T06:30:37.066Z,99028.66
2022-12-25T06:33:05.338Z,99030.66
2022-12-25T06:35:33.652Z,99027.84
2022-12-25T06:38:03.183Z,99030.03
2022-12-25T06:40:31.387Z,99029.41
2022-12-25T06:42:59.445Z,99022.56
2022-12-25T06:45:27.655Z,99029.63
2022-12-25T06:47:56.662Z,99021.75
2022-12-25T06:50:24.852Z,99021.94
2022-12-25T06:52:53.002Z,99035.06
2022-12-25T06:55:22.473Z,99029.03
2022-12-25T06:57:50.633Z,99040.50
2022-12-25T07:00:19.164Z,99033.44
2022-12-25T07:02:49.892Z,99046.75
2022-12-25T07:05:18.329Z,99043.75
2022-12-25T07:07:46.522Z,99048.22
2022-12-25T07:10:14.623Z,99045.59
2022-12-25T07:12:44.178Z,99044.78
2022-12-25T07:15:12.499Z,99040.31
2022-12-25T07:17:40.799Z,99038.91
2022-12-25T07:20:10.067Z,99040.72
2022-12-25T07:22:38.194Z,99044.34
2022-12-25T07:25:07.334Z,99040.09
2022-12-25T07:27:35.563Z,99035.84
2022-12-25T07:30:05.613Z,99033.63
2022-12-25T07:32:34.033Z,99038.50
2022-12-25T07:35:02.236Z,99044.78
2022-12-25T07:37:30.471Z,99034.66
2022-12-25T07:39:58.626Z,99053.63
2022-12-25T07:42:26.724Z,99051.00
2022-12-25T07:44:54.761Z,99051.63
2022-12-25T07:47:24.331Z,99056.09
2022-12-25T07:49:52.617Z,99058.88
2022-12-25T07:52:20.887Z,99066.16
2022-12-25T07:54:49.171Z,99068.19
2022-12-25T07:57:17.725Z,99074.25
2022-12-25T07:59:45.925Z,99076.06
2022-12-25T08:02:14.432Z,99077.69
2022-12-25T08:04:44.734Z,99070.63
2022-12-25T08:07:12.858Z,99074.69
2022-12-25T08:09:41.031Z,99084.16
2022-12-25T08:12:09.115Z,99079.53
2022-12-25T08:14:37.319Z,99071.25
2022-12-25T08:17:05.625Z,99080.38
2022-12-25T08:19:34.065Z,99088.03
2022-12-25T08:22:03.640Z,99086.06
2022-12-25T08:24:31.930Z,99098.59
2022-12-25T08:27:00.177Z,99089.69
2022-12-25T08:29:29.055Z,99088.69
2022-12-25T08:31:57.304Z,99095.56
2022-12-25T08:34:25.420Z,99088.69
2022-12-25T08:36:53.629Z,99090.94
2022-12-25T08:39:23.316Z,99091.53
2022-12-25T08:41:51.445Z,99092.16
2022-12-25T08:44:19.788Z,99094.59
2022-12-25T08:46:47.877Z,99090.34
2022-12-25T08:49:16.519Z,99096.19
2022-12-25T08:51:45.885Z,99092.97
2022-12-25T08:54:14.125Z,99097.03
2022-12-25T08:56:43.777Z,99101.06
2022-12-25T08:59:11.998Z,99104.34
2022-12-25T09:01:40.277Z,99100.69
2022-12-25T09:04:08.440Z,99109.59
2022-12-25T09:06:36.644Z,99118.13
2022-12-25T09:09:05.006Z,99109.03
2022-12-25T09:11:33.166Z,99123.41
2022-12-25T09:14:03.014Z,99114.94
2022-12-25T09:16:31.213Z,99123.63
2022-12-25T09:18:59.419Z,99128.88
2022-12-25T09:21:27.558Z,99123.25
2022-12-25T09:23:55.810Z,99117.97
2022-12-25T09:26:24.321Z,99109.88
2022-12-25T09:28:52.960Z,99106.25
2022-12-25T09:31:23.977Z,99102.00
2022-12-25T09:33:53.054Z,99093.91
2022-12-25T09:36:23.518Z,99090.69
2022-12-25T09:38:51.974Z,99094.72
2022-12-25T09:41:26.116Z,99103.59
2022-12-25T09:44:00.932Z,99101.16
2022-12-25T09:46:38.171Z,99108.03
2022-12-25T09:49:14.763Z,99104.00
2022-12-25T09:51:47.089Z,99105.03
2022-12-25T09:54:22.191Z,99110.28
2022-12-25T09:56:50.592Z,99111.28
2022-12-25T09:59:24.323Z,99114.53
2022-12-25T10:02:15.976Z,99113.09
2022-12-25T10:04:58.866Z,99121.19
2022-12-25T10:07:38.035Z,99112.28
2022-12-25T10:10:25.390Z,99112.09
2022-12-25T10:13:05.452Z,99108.25
2022-12-25T10:15:41.824Z,99110.25
2022-12-25T10:18:38.209Z,99113.09
2022-12-25T10:21:13.231Z,99107.84
2022-12-25T10:23:44.465Z,99107.84
2022-12-25T10:26:16.938Z,99109.66
2022-12-25T10:28:47.048Z,99105.81
2022-12-25T10:31:22.296Z,99102.38
2022-12-25T10:33:55.123Z,99107.41
2022-12-25T10:36:26.230Z,99099.53
2022-12-25T10:38:55.264Z,99103.19
2022-12-25T10:41:38.834Z,99108.84
2022-12-25T10:44:15.402Z,99114.72
2022-12-25T10:46:49.426Z,99117.56
2022-12-25T10:49:22.376Z,99119.78
2022-12-25T10:51:51.250Z,99133.94
2022-12-25T10:54:23.105Z,99125.47
2022-12-25T10:56:56.366Z,99128.09
2022-12-25T10:59:25.340Z,99129.28
2022-12-25T11:01:55.389Z,99134.75
2022-12-25T11:04:28.633Z,99138.41
2022-12-25T11:06:59.052Z,99142.06
2022-12-25T11:09:27.343Z,99143.88
2022-12-25T11:11:55.730Z,99149.34
2022-12-25T11:14:34.903Z,99142.47
2022-12-25T11:17:10.108Z,99146.50
2022-12-25T11:19:39.584Z,99148.34
2022-12-25T11:22:19.814Z,99145.31
2022-12-25T11:24:47.994Z,99151.78
2022-12-25T11:27:26.310Z,99151.97
2022-12-25T11:29:59.364Z,99143.47
2022-12-25T11:32:31.682Z,99138.63
2022-12-25T11:35:02.984Z,99139.25
2022-12-25T11:37:36.604Z,99133.53
2022-12-25T11:40:05.927Z,99128.28
2022-12-25T11:42:37.950Z,99124.03
2022-12-25T11:45:12.668Z,99121.22
2022-12-25T11:47:46.297Z,99127.06
2022-12-25T11:50:23.686Z,99128.72
2022-12-25T11:52:54.362Z,99135.19
2022-12-25T11:55:30.684Z,99132.75
2022-12-25T11:58:04.591Z,99128.31
2022-12-25T12:00:36.538Z,99128.72
2022-12-25T12:03:12.108Z,99135.38
2022-12-25T12:05:46.558Z,99122.63
2022-12-25T12:08:15.705Z,99131.75
2022-12-25T12:11:16.108Z,99125.88
2022-12-25T12:14:05.412Z,99122.22
2022-12-25T12:16:33.969Z,99124.03
2022-12-25T12:19:12.837Z,99127.28
2022-12-25T12:21:44.292Z,99121.41
2022-12-25T12:24:17.782Z,99127.47
2022-12-25T12:26:47.693Z,99125.44
2022-12-25T12:29:26.550Z,99132.13
2022-12-25T12:31:58.635Z,99135.16
2022-12-25T12:34:29.523Z,99143.25
2022-12-25T12:37:02.973Z,99144.06
2022-12-25T12:39:36.595Z,99140.41
2022-12-25T12:42:15.145Z,99124.41
2022-12-25T12:44:44.087Z,99138.97
2022-12-25T12:47:29.072Z,99133.94
2022-12-25T12:50:00.154Z,99136.16
2022-12-25T12:52:37.755Z,99127.22
2022-12-25T12:55:09.558Z,99125.19
2022-12-25T12:57:40.494Z,99119.50
2022-12-25T13:00:16.237Z,99124.56
2022-12-25T13:03:10.345Z,99113.66
2022-12-25T13:05:42.065Z,99119.34
2022-12-25T13:08:34.908Z,99116.91
2022-12-25T13:11:16.852Z,99121.41
2022-12-25T13:13:46.849Z,99112.06
2022-12-25T13:16:23.169Z,99117.16
2022-12-25T13:18:53.123Z,99124.66
2022-12-25T13:21:27.945Z,99118.16
2022-12-25T13:24:02.682Z,99126.06
2022-12-25T13:26:32.133Z,99114.56
2022-12-25T13:29:00.396Z,99118.38
2022-12-25T13:31:30.744Z,99118.38
2022-12-25T13:34:03.730Z,99113.50
2022-12-25T13:36:37.488Z,99118.59
2022-12-25T13:39:10.281Z,99115.34
2022-12-25T13:42:02.999Z,99119.75
2022-12-25T13:44:37.388Z,99106.38
2022-12-25T13:47:16.827Z,99103.13
2022-12-25T13:49:46.174Z,99100.28
2022-12-25T13:52:16.909Z,99089.72
2022-12-25T13:54:57.567Z,99077.16
2022-12-25T13:57:30.220Z,99079.59
2022-12-25T13:59:59.050Z,99074.53
2022-12-25T14:02:32.658Z,99079.41
2022-12-25T14:05:00.839Z,99087.72
2022-12-25T14:07:29.178Z,99081.03
2022-12-25T14:10:02.859Z,99079.25
2022-12-25T14:12:32.975Z,99081.28
2022-12-25T14:15:02.358Z,99087.75
2022-12-25T14:17:30.751Z,99081.28
2022-12-25T14:20:06.000Z,99081.50
2022-12-25T14:22:37.934Z,99081.72
2022-12-25T14:25:15.687Z,99085.78
2022-12-25T14:27:50.176Z,99082.13
2022-12-25T14:30:19.568Z,99081.09
2022-12-25T14:32:52.081Z,99080.50
2022-12-25T14:35:23.749Z,99074.84
2022-12-25T14:37:57.208Z,99074.25
2022-12-25T14:40:31.932Z,99076.06
2022-12-25T14:43:01.465Z,99071.81
2022-12-25T14:45:32.279Z,99081.75
2022-12-25T14:48:03.214Z,99080.94
2022-12-25T14:50:37.445Z,99078.69
2022-12-25T14:53:07.462Z,99067.34
2022-12-25T14:55:38.458Z,99081.13
2022-12-25T14:58:08.309Z,99083.94
2022-12-25T15:00:39.118Z,99082.94
2022-12-25T15:03:18.716Z,99080.50
2022-12-25T15:05:46.846Z,99071.00
2022-12-25T15:08:26.112Z,99070.00
2022-12-25T15:11:00.673Z,99072.00
2022-12-25T15:13:30.785Z,99070.00
2022-12-25T15:16:03.199Z,99080.91
2022-12-25T15:18:36.358Z,99080.91
2022-12-25T15:21:04.706Z,99079.53
2022-12-25T15:23:32.875Z,99080.53
2022-12-25T15:26:02.361Z,99082.78
2022-12-25T15:28:30.486Z,99087.44
2022-12-25T15:30:58.827Z,99084.41
2022-12-25T15:33:27.090Z,99072.66
2022-12-25T15:35:55.264Z,99072.03
2022-12-25T15:38:23.430Z,99072.25
2022-12-25T15:40:51.582Z,99078.53
2022-12-25T15:43:40.111Z,99070.44
2022-12-25T15:46:10.595Z,99063.97
2022-12-25T15:48:38.798Z,99069.22
2022-12-25T15:51:07.230Z,99073.88
2022-12-25T15:53:35.759Z,99075.31
2022-12-25T15:56:04.053Z,99074.69
2022-12-25T15:58:33.607Z,99076.09
2022-12-25T16:01:01.921Z,99081.78
2022-12-25T16:03:30.165Z,99088.22
2022-12-25T16:05:58.407Z,99091.06
2022-12-25T16:08:26.521Z,99095.72
2022-12-25T16:10:54.963Z,99092.28
2022-12-25T16:13:23.493Z,99091.47
2022-12-25T16:15:53.137Z,99087.81
2022-12-25T16:18:21.449Z,99095.72
2022-12-25T16:20:49.602Z,99094.09
2022-12-25T16:23:17.897Z,99100.78
2022-12-25T16:25:46.076Z,99098.97
2022-12-25T16:28:14.326Z,99093.50
2022-12-25T16:30:43.318Z,99086.63
2022-12-25T16:33:13.080Z,99083.41
2022-12-25T16:35:41.320Z,99086.81
2022-12-25T16:38:09.538Z,99087.00
2022-12-25T16:40:37.665Z,99077.50
2022-12-25T16:43:05.946Z,99074.06
2022-12-25T16:45:39.612Z,99061.94
2022-12-25T16:48:08.748Z,99070.84
2022-12-25T16:50:41.281Z,99059.91
2022-12-25T16:53:09.934Z,99063.56
2022-12-25T16:55:38.875Z,99071.63
2022-12-25T16:58:07.805Z,99075.28
2022-12-25T17:00:36.096Z,99081.97
2022-12-25T17:03:04.432Z,99083.97
2022-12-25T17:05:34.577Z,99083.97
2022-12-25T17:08:04.067Z,99085.59
2022-12-25T17:10:32.630Z,99083.38
2022-12-25T17:13:00.869Z,99075.47
2022-12-25T17:15:31.595Z,99071.25
2022-12-25T17:17:59.776Z,99065.97
2022-12-25T17:20:28.125Z,99078.13
2022-12-25T17:22:57.757Z,99074.47
2022-12-25T17:25:27.275Z,99082.16
2022-12-25T17:27:55.356Z,99087.00
2022-12-25T17:30:23.865Z,99091.47
2022-12-25T17:32:52.046Z,99094.50
2022-12-25T17:35:21.468Z,99093.31
2022-12-25T17:37:49.739Z,99088.63
2022-12-25T17:40:17.974Z,99094.53
2022-12-25T17:42:47.653Z,99095.13
2022-12-25T17:45:16.017Z,99098.56
2022-12-25T17:47:44.201Z,99095.53
2022-12-25T17:50:12.423Z,99092.91
2022-12-25T17:52:40.606Z,99093.91
2022-12-25T17:55:09.609Z,99088.03
2022-12-25T17:57:37.779Z,99071.66
2022-12-25T18:00:10.320Z,99075.31
2022-12-25T18:02:40.151Z,99074.50
2022-12-25T18:05:10.004Z,99079.75
2022-12-25T18:07:38.510Z,99083.38
2022-12-25T18:10:07.966Z,99081.38
2022-12-25T18:12:36.222Z,99082.78
2022-12-25T18:15:04.638Z,99080.75
2022-12-25T18:17:34.151Z,99085.00
2022-12-25T18:20:02.708Z,99080.56
2022-12-25T18:22:30.995Z,99075.91
2022-12-25T18:24:59.317Z,99078.94
2022-12-25T18:27:27.495Z,99083.00
2022-12-25T18:29:55.684Z,99075.09
2022-12-25T18:32:28.038Z,99079.34
2022-12-25T18:34:58.071Z,99089.66
2022-12-25T18:37:26.757Z,99101.19
2022-12-25T18:39:54.950Z,99093.09
2022-12-25T18:42:41.434Z,99093.91
2022-12-25T18:45:12.413Z,99078.53
2022-12-25T18:47:40.520Z,99091.66
2022-12-25T18:50:11.220Z,99098.53
2022-12-25T18:52:49.404Z,99107.41
2022-12-25T18:55:19.893Z,99131.09
2022-12-25T18:57:48.527Z,99145.41
2022-12-25T19:00:17.231Z,99160.97
2022-12-25T19:02:45.700Z,99169.38
2022-12-25T19:05:15.513Z,99183.41
2022-12-25T19:07:43.789Z,99202.88
2022-12-25T19:10:11.881Z,99204.78
2022-12-25T19:12:40.018Z,99215.56
2022-12-25T19:15:09.193Z,99227.19
2022-12-25T19:17:38.551Z,99248.34
2022-12-25T19:20:07.617Z,99271.50
2022-12-25T19:22:37.310Z,99273.25
2022-12-25T19:25:06.333Z,99282.88
2022-12-25T19:27:34.669Z,99289.84
2022-12-25T19:30:02.764Z,99297.00
2022-12-25T19:32:32.611Z,99316.09
2022-12-25T19:35:04.566Z,99316.94
2022-12-25T19:37:32.933Z,99312.28
2022-12-25T19:40:02.488Z,99331.91
2022-12-25T19:42:30.771Z,99349.97
2022-12-25T19:44:58.993Z,99367.03
2022-12-25T19:47:27.256Z,99382.75
2022-12-25T19:50:00.851Z,99388.59
2022-12-25T19:52:30.782Z,99396.84
2022-12-25T19:54:59.095Z,99398.53
2022-12-25T19:57:28.701Z,99397.91
2022-12-25T19:59:56.957Z,99416.66
2022-12-25T20:02:25.117Z,99426.22
2022-12-25T20:04:53.485Z,99443.31
2022-12-25T20:07:21.733Z,99457.97
2022-12-25T20:09:49.959Z,99466.25
2022-12-25T20:12:18.124Z,99472.69
2022-12-25T20:14:48.397Z,99485.63
2022-12-25T20:17:16.770Z,99504.59
2022-12-25T20:19:45.106Z,99521.25
2022-12-25T20:22:13.271Z,99520.28
2022-12-25T20:24:41.360Z,99523.84
2022-12-25T20:27:09.580Z,99535.78
2022-12-25T20:29:37.992Z,99549.16
2022-12-25T20:32:07.744Z,99559.47
2022-12-25T20:34:36.000Z,99563.69
2022-12-25T20:37:04.895Z,99570.06
2022-12-25T20:39:33.181Z,99579.56
2022-12-25T20:42:01.376Z,99589.03
2022-12-25T20:44:29.490Z,99592.94
2022-12-25T20:47:01.235Z,99599.00
2022-12-25T20:49:32.722Z,99598.00
2022-12-25T20:52:05.266Z,99602.91
2022-12-25T20:54:34.596Z,99611.88
2022-12-25T20:57:02.774Z,99610.56
2022-12-25T20:59:37.165Z,99618.91
2022-12-25T21:02:06.396Z,99624.47
2022-12-25T21:04:36.086Z,99623.28
2022-12-25T21:07:05.290Z,99631.31
2022-12-25T21:09:34.523Z,99642.09
2022-12-25T21:12:03.015Z,99650.75
2022-12-25T21:14:31.293Z,99656.50
2022-12-25T21:16:59.701Z,99660.59
2022-12-25T21:19:27.794Z,99664.00
2022-12-25T21:21:57.410Z,99679.72
2022-12-25T21:24:25.638Z,99682.16
2022-12-25T21:26:53.803Z,99689.38
2022-12-25T21:29:23.170Z,99692.50
2022-12-25T21:32:08.345Z,99703.44
2022-12-25T21:34:36.810Z,99709.19
2022-12-25T21:37:06.364Z,99718.22
2022-12-25T21:39:35.085Z,99731.78
2022-12-25T21:42:04.782Z,99729.81
2022-12-25T21:44:32.967Z,99730.19
2022-12-25T21:47:01.180Z,99741.13
2022-12-25T21:49:48.790Z,99743.59
2022-12-25T21:52:18.601Z,99758.50
2022-12-25T21:54:47.026Z,99758.81
2022-12-25T21:57:15.250Z,99778.63
2022-12-25T21:59:43.397Z,99787.28
2022-12-25T22:02:12.370Z,99785.34
2022-12-25T22:04:40.890Z,99785.34
2022-12-25T22:07:18.579Z,99793.66
2022-12-25T22:09:50.324Z,99802.69
2022-12-25T22:12:49.340Z,99813.97
2022-12-25T22:15:17.664Z,99804.19
2022-12-25T22:18:03.016Z,99814.97
2022-12-25T22:20:34.896Z,99807.59
2022-12-25T22:23:03.596Z,99817.94
2022-12-25T22:25:33.312Z,99835.75
2022-12-25T22:28:01.460Z,99850.78
2022-12-25T22:30:30.898Z,99864.53
2022-12-25T22:32:59.412Z,99869.75
2022-12-25T22:35:27.614Z,99875.00
2022-12-25T22:37:56.122Z,99892.31
2022-12-25T22:40:24.528Z,99896.59
2022-12-25T22:42:56.838Z,99899.53
2022-12-25T22:45:25.646Z,99911.13
2022-12-25T22:47:53.815Z,99918.31
2022-12-25T22:50:22.163Z,99923.06
2022-12-25T22:52:50.327Z,99926.81
2022-12-25T22:55:22.739Z,99930.56
2022-12-25T22:57:52.179Z,99930.22
2022-12-25T23:00:21.781Z,99937.91
2022-12-25T23:02:50.300Z,99940.66
2022-12-25T23:05:19.171Z,99957.34
2022-12-25T23:07:47.252Z,99960.59
2022-12-25T23:10:15.361Z,99962.53
2022-12-25T23:13:01.098Z,99979.19
2022-12-25T23:15:31.679Z,99976.41
2022-12-25T23:18:17.448Z,99996.66
2022-12-25T23:21:03.381Z,100000.25
2022-12-25T23:23:49.000Z,99997.78
2022-12-25T23:26:19.082Z,100011.59
2022-12-25T23:29:04.833Z,100018.91
2022-12-25T23:31:36.678Z,100020.88
2022-12-25T23:34:05.942Z,100031.97
2022-12-25T23:36:34.575Z,100023.44
2022-12-25T23:39:09.731Z,100038.31
2022-12-25T23:41:39.207Z,100041.91
2022-12-25T23:44:07.705Z,100048.25
2022-12-25T23:46:37.650Z,100048.56
2022-12-25T23:49:06.581Z,100049.16
2022-12-25T23:51:36.621Z,100061.28
2022-12-25T23:54:05.193Z,100058.25
2022-12-25T23:56:33.456Z,100064.47
2022-12-25T23:59:01.709Z,100069.84
